createdAt,value
2022-09-28T00:01:35.755Z,12.70
2022-09-28T00:06:39.245Z,12.73
2022-09-28T00:11:43.721Z,12.71
2022-09-28T00:16:47.019Z,12.67
2022-09-28T00:21:49.841Z,12.68
2022-09-28T00:26:55.098Z,12.71
2022-09-28T00:32:03.925Z,12.69
2022-09-28T00:37:09.060Z,12.68
2022-09-28T00:42:19.393Z,12.69
2022-09-28T00:47:43.823Z,12.69
2022-09-28T00:53:24.527Z,12.70
2022-09-28T00:58:32.500Z,12.69
2022-09-28T01:03:35.282Z,12.69
2022-09-28T01:08:40.176Z,12.63
2022-09-28T01:13:44.090Z,12.55
2022-09-28T01:19:05.644Z,12.52
2022-09-28T01:24:36.032Z,12.47
2022-09-28T01:29:48.309Z,12.34
2022-09-28T01:35:31.342Z,12.22
2022-09-28T01:40:36.184Z,12.11
2022-09-28T01:45:44.325Z,12.01
2022-09-28T01:50:53.801Z,11.89
2022-09-28T01:56:05.838Z,11.77
2022-09-28T02:01:15.277Z,11.71
2022-09-28T02:06:46.100Z,11.66
2022-09-28T02:11:56.324Z,11.63
2022-09-28T02:16:59.172Z,11.59
2022-09-28T02:22:37.501Z,11.49
2022-09-28T02:27:54.237Z,11.30
2022-09-28T02:33:03.603Z,11.14
2022-09-28T02:38:06.327Z,10.97
2022-09-28T02:43:16.441Z,10.85
2022-09-28T02:49:22.754Z,10.77
2022-09-28T02:54:44.298Z,10.67
2022-09-28T02:59:47.032Z,10.60
2022-09-28T03:05:11.942Z,10.56
2022-09-28T03:10:50.069Z,10.50
2022-09-28T03:15:52.882Z,10.44
2022-09-28T03:20:55.804Z,10.43
2022-09-28T03:25:59.082Z,10.41
2022-09-28T03:31:02.839Z,10.42
2022-09-28T03:36:06.048Z,10.47
2022-09-28T03:41:09.641Z,10.52
2022-09-28T03:46:12.466Z,10.51
2022-09-28T03:51:15.258Z,10.54
2022-09-28T03:56:18.252Z,10.54
2022-09-28T04:01:21.043Z,10.55
2022-09-28T04:06:25.233Z,10.58
2022-09-28T04:11:34.929Z,10.59
2022-09-28T04:16:48.197Z,10.59
2022-09-28T04:21:52.012Z,10.62
2022-09-28T04:27:14.700Z,10.63
2022-09-28T04:32:17.540Z,10.64
2022-09-28T04:37:20.425Z,10.65
2022-09-28T04:42:23.552Z,10.70
2022-09-28T04:47:26.643Z,10.76
2022-09-28T04:52:29.425Z,10.80
2022-09-28T04:57:34.846Z,10.78
2022-09-28T05:02:37.774Z,10.76
2022-09-28T05:07:41.938Z,10.73
2022-09-28T05:12:44.711Z,10.72
2022-09-28T05:17:47.451Z,10.75
2022-09-28T05:22:50.199Z,10.78
2022-09-28T05:27:57.124Z,10.80
2022-09-28T05:33:00.797Z,10.80
2022-09-28T05:38:05.747Z,10.76
2022-09-28T05:43:08.479Z,10.65
2022-09-28T05:48:11.354Z,10.62
2022-09-28T05:53:14.742Z,10.62
2022-09-28T05:58:17.602Z,10.61
2022-09-28T06:03:20.660Z,10.59
2022-09-28T06:08:23.724Z,10.61
2022-09-28T06:13:27.921Z,10.68
2022-09-28T06:18:30.665Z,10.75
2022-09-28T06:23:33.964Z,10.84
2022-09-28T06:28:37.639Z,10.94
2022-09-28T06:33:42.156Z,11.09
2022-09-28T06:38:45.461Z,11.30
2022-09-28T06:43:51.318Z,11.48
2022-09-28T06:48:54.271Z,11.63
2022-09-28T06:54:01.613Z,11.76
2022-09-28T06:59:08.078Z,11.84
2022-09-28T07:04:10.946Z,11.90
2022-09-28T07:09:29.514Z,11.91
2022-09-28T07:14:47.302Z,11.90
2022-09-28T07:20:10.468Z,11.75
2022-09-28T07:25:17.237Z,11.68
2022-09-28T07:30:20.741Z,11.83
2022-09-28T07:35:24.590Z,11.98
2022-09-28T07:40:48.452Z,12.02
2022-09-28T07:45:54.125Z,12.03
2022-09-28T07:51:00.198Z,12.06
2022-09-28T07:56:10.043Z,12.14
2022-09-28T08:01:17.769Z,12.24
2022-09-28T08:06:20.568Z,12.31
2022-09-28T08:11:23.623Z,12.40
2022-09-28T08:16:27.769Z,12.33
2022-09-28T08:21:46.332Z,12.22
2022-09-28T08:26:49.603Z,12.29
2022-09-28T08:31:52.446Z,12.41
2022-09-28T08:36:59.301Z,12.46
2022-09-28T08:42:28.080Z,12.71
2022-09-28T08:48:07.374Z,13.08
2022-09-28T08:53:41.018Z,13.19
2022-09-28T08:58:49.169Z,13.21
2022-09-28T09:03:52.527Z,13.29
2022-09-28T09:09:23.983Z,13.53
2022-09-28T09:15:10.466Z,13.74
2022-09-28T09:20:25.622Z,14.02
2022-09-28T09:25:47.568Z,14.25
2022-09-28T09:30:57.087Z,14.23
2022-09-28T09:36:22.095Z,14.34
2022-09-28T09:41:52.585Z,14.76
2022-09-28T09:47:34.010Z,15.18
2022-09-28T09:52:58.999Z,15.50
2022-09-28T09:58:12.286Z,16.02
2022-09-28T10:03:30.640Z,16.53
2022-09-28T10:08:40.861Z,16.58
2022-09-28T10:13:44.745Z,16.15
2022-09-28T10:18:49.729Z,15.71
2022-09-28T10:24:02.884Z,15.57
2022-09-28T10:29:15.004Z,15.62
2022-09-28T10:34:26.563Z,15.49
2022-09-28T10:39:51.168Z,15.54
2022-09-28T10:45:20.184Z,15.51
2022-09-28T10:50:25.737Z,15.28
2022-09-28T10:55:33.604Z,14.99
2022-09-28T11:00:42.731Z,14.83
2022-09-28T11:05:54.842Z,14.75
2022-09-28T11:11:11.976Z,14.65
2022-09-28T11:16:29.184Z,14.42
2022-09-28T11:21:42.695Z,14.19
2022-09-28T11:26:52.963Z,13.93
2022-09-28T11:32:04.960Z,13.63
2022-09-28T11:37:23.479Z,13.47
2022-09-28T11:42:57.521Z,13.44
2022-09-28T11:48:07.991Z,13.72
2022-09-28T11:53:31.222Z,14.13
2022-09-28T11:58:51.570Z,14.40
2022-09-28T12:04:02.581Z,14.34
2022-09-28T12:09:22.545Z,14.21
2022-09-28T12:14:30.956Z,14.09
2022-09-28T12:19:58.013Z,13.95
2022-09-28T12:25:03.908Z,13.93
2022-09-28T12:30:19.883Z,14.02
2022-09-28T12:35:25.984Z,14.07
2022-09-28T12:40:53.663Z,14.02
2022-09-28T12:46:28.187Z,14.06
2022-09-28T12:51:58.156Z,14.32
2022-09-28T12:57:16.140Z,14.46
2022-09-28T13:02:51.364Z,14.57
2022-09-28T13:07:56.899Z,14.58
2022-09-28T13:13:45.182Z,14.46
2022-09-28T13:19:03.130Z,14.26
2022-09-28T13:24:31.111Z,14.22
2022-09-28T13:29:36.978Z,14.27
2022-09-28T13:34:40.155Z,14.21
2022-09-28T13:39:45.937Z,14.10
2022-09-28T13:45:15.639Z,14.10
2022-09-28T13:50:56.892Z,14.15
2022-09-28T13:56:49.189Z,14.31
2022-09-28T14:02:06.778Z,14.19
2022-09-28T14:07:16.872Z,14.02
2022-09-28T14:12:34.218Z,13.86
2022-09-28T14:17:58.266Z,13.64
2022-09-28T14:23:10.849Z,13.41
2022-09-28T14:28:30.849Z,13.21
2022-09-28T14:33:34.711Z,13.15
2022-09-28T14:39:06.071Z,13.23
2022-09-28T14:44:12.765Z,13.43
2022-09-28T14:49:20.126Z,13.47
2022-09-28T14:54:27.974Z,13.32
2022-09-28T14:59:36.504Z,13.14
2022-09-28T15:04:50.995Z,12.94
2022-09-28T15:09:58.616Z,12.84
2022-09-28T15:15:08.700Z,12.82
2022-09-28T15:20:30.631Z,12.80
2022-09-28T15:25:35.280Z,12.70
2022-09-28T15:30:38.849Z,12.57
2022-09-28T15:35:41.793Z,12.40
2022-09-28T15:40:46.444Z,12.22
2022-09-28T15:46:02.714Z,12.01
2022-09-28T15:51:19.728Z,11.79
2022-09-28T15:56:22.705Z,11.62
2022-09-28T16:01:37.453Z,11.49
2022-09-28T16:06:41.836Z,11.43
2022-09-28T16:11:44.657Z,11.38
2022-09-28T16:16:58.160Z,11.28
2022-09-28T16:22:03.971Z,11.20
2022-09-28T16:27:40.175Z,11.15
2022-09-28T16:32:49.917Z,11.07
2022-09-28T16:38:01.738Z,11.01
2022-09-28T16:43:08.931Z,10.97
2022-09-28T16:48:20.339Z,10.98
2022-09-28T16:53:44.681Z,11.04
2022-09-28T16:58:49.426Z,11.07
2022-09-28T17:03:52.426Z,11.08
2022-09-28T17:08:56.759Z,11.08
2022-09-28T17:14:00.342Z,11.10
2022-09-28T17:19:03.187Z,11.10
2022-09-28T17:24:06.877Z,11.05
2022-09-28T17:29:14.623Z,11.02
2022-09-28T17:34:19.972Z,11.05
2022-09-28T17:39:25.171Z,11.05
2022-09-28T17:44:28.592Z,11.03
2022-09-28T17:49:31.441Z,10.97
2022-09-28T17:54:34.383Z,10.90
2022-09-28T17:59:44.800Z,10.83
2022-09-28T18:04:52.152Z,10.77
2022-09-28T18:09:58.224Z,10.71
2022-09-28T18:15:01.633Z,10.67
2022-09-28T18:20:06.908Z,10.62
2022-09-28T18:25:11.300Z,10.56
2022-09-28T18:30:14.048Z,10.49
2022-09-28T18:35:22.036Z,10.46
2022-09-28T18:40:25.973Z,10.43
2022-09-28T18:45:29.154Z,10.40
2022-09-28T18:50:32.892Z,10.39
2022-09-28T18:55:36.103Z,10.39
2022-09-28T19:00:42.412Z,10.38
2022-09-28T19:05:46.833Z,10.34
2022-09-28T19:10:49.712Z,10.33
2022-09-28T19:15:52.497Z,10.34
2022-09-28T19:20:55.238Z,10.36
2022-09-28T19:26:02.392Z,10.34
2022-09-28T19:31:17.036Z,10.35
2022-09-28T19:36:23.747Z,10.40
2022-09-28T19:41:46.011Z,10.44
2022-09-28T19:46:56.134Z,10.44
2022-09-28T19:52:12.798Z,10.44
2022-09-28T19:57:19.935Z,10.47
2022-09-28T20:02:22.804Z,10.43
2022-09-28T20:07:25.650Z,10.37
2022-09-28T20:12:28.434Z,10.35
2022-09-28T20:17:31.464Z,10.25
2022-09-28T20:22:34.579Z,10.12
2022-09-28T20:27:39.244Z,10.01
2022-09-28T20:32:44.189Z,9.92
2022-09-28T20:37:51.075Z,9.79
2022-09-28T20:42:53.805Z,9.72
2022-09-28T20:47:56.535Z,9.61
2022-09-28T20:53:00.375Z,9.57
2022-09-28T20:58:04.275Z,9.56
2022-09-28T21:03:08.670Z,9.48
2022-09-28T21:08:11.634Z,9.42
2022-09-28T21:13:14.534Z,9.42
2022-09-28T21:18:18.751Z,9.43
2022-09-28T21:23:24.943Z,9.46
2022-09-28T21:28:29.891Z,9.48
2022-09-28T21:33:32.990Z,9.48
2022-09-28T21:38:38.710Z,9.45
2022-09-28T21:43:41.580Z,9.42
2022-09-28T21:48:44.299Z,9.41
2022-09-28T21:53:49.226Z,9.43
2022-09-28T21:58:52.270Z,9.41
2022-09-28T22:03:56.848Z,9.41
2022-09-28T22:08:59.613Z,9.43
2022-09-28T22:14:02.314Z,9.49
2022-09-28T22:19:05.122Z,9.47
2022-09-28T22:24:08.040Z,9.47
2022-09-28T22:29:11.290Z,9.51
2022-09-28T22:34:13.993Z,9.59
2022-09-28T22:39:16.704Z,9.62
2022-09-28T22:44:20.261Z,9.61
2022-09-28T22:49:23.867Z,9.56
2022-09-28T22:54:26.604Z,9.53
2022-09-28T22:59:29.685Z,9.49
2022-09-28T23:04:32.387Z,9.50
2022-09-28T23:09:35.137Z,9.54
2022-09-28T23:14:37.925Z,9.51
2022-09-28T23:19:40.659Z,9.45
2022-09-28T23:24:43.378Z,9.45
2022-09-28T23:29:49.174Z,9.45
2022-09-28T23:34:51.964Z,9.47
2022-09-28T23:39:54.657Z,9.49
2022-09-28T23:44:57.448Z,9.48
2022-09-28T23:50:00.190Z,9.51
2022-09-28T23:55:03.824Z,9.54
